Terminal Aerodrome Forecast
Issued by NWS St Louis, MO

Home | Current Version | Previous Version | Text Only | Print | Product List | Glossary On
Versions: 1 2 3 4 5 6 7 8 9 10 11 12 13 14 15 16 17 18 19 20 21 22 23 24 25 26 27 28 29 30 31 32
000
FTUS43 KLSX 250500
TAFSTL
TAF
KSTL 250530Z 2506/2612 24008KT 5SM BR BKN009
      TEMPO 2506/2507 SCT009 BKN025
     FM250700 27009KT 4SM BR SCT005 OVC008
     FM251700 VRB04KT P6SM BKN250
     FM260000 06012KT P6SM SCT040 OVC100
      TEMPO 2602/2605 3SM SHRA SCT012 OVC040
     FM260500 36010KT 3SM -TSRA BR SCT007 OVC012CB=

USA.gov is the U.S. government's official web portal to all federal, state and local government web resources and services.